createdAt,value
2022-09-23T00:05:23.824Z,95962.00
2022-09-23T00:10:51.578Z,95957.00
2022-09-23T00:16:29.059Z,95952.00
2022-09-23T00:21:56.930Z,95966.00
2022-09-23T00:27:24.796Z,95950.00
2022-09-23T00:32:53.159Z,95933.00
2022-09-23T00:38:21.285Z,95945.00
2022-09-23T00:43:59.973Z,95940.00
2022-09-23T00:49:30.590Z,95938.00
2022-09-23T00:55:01.138Z,95937.00
2022-09-23T01:00:29.221Z,95933.00
2022-09-23T01:05:58.248Z,95917.00
2022-09-23T01:12:24.460Z,95910.00
2022-09-23T01:17:55.471Z,95914.00
2022-09-23T01:24:02.579Z,95906.00
2022-09-23T01:30:08.318Z,95904.00
2022-09-23T01:35:50.472Z,95908.00
2022-09-23T01:42:07.052Z,95903.00
2022-09-23T01:47:56.163Z,95892.00
2022-09-23T01:53:55.635Z,95890.00
2022-09-23T01:59:33.759Z,95882.00
2022-09-23T02:05:18.536Z,95887.00
2022-09-23T02:10:54.480Z,95873.00
2022-09-23T02:16:32.257Z,95882.00
2022-09-23T02:22:13.190Z,95887.00
2022-09-23T02:28:19.318Z,95887.00
2022-09-23T02:34:11.627Z,95883.00
2022-09-23T02:40:02.047Z,95881.00
2022-09-23T02:45:30.605Z,95874.00
2022-09-23T02:51:02.296Z,95870.00
2022-09-23T02:56:30.439Z,95871.00
2022-09-23T03:03:05.336Z,95862.00
2022-09-23T03:08:51.269Z,95867.00
2022-09-23T03:14:49.522Z,95856.00
2022-09-23T03:20:40.997Z,95860.00
2022-09-23T03:26:23.600Z,95858.00
2022-09-23T03:31:54.871Z,95863.00
2022-09-23T03:38:07.213Z,95849.00
2022-09-23T03:43:38.817Z,95857.00
2022-09-23T03:49:39.880Z,95852.00
2022-09-23T03:55:08.927Z,95859.00
2022-09-23T04:00:37.306Z,95853.00
2022-09-23T04:06:05.711Z,95847.00
2022-09-23T04:11:33.997Z,95850.00
2022-09-23T04:17:02.834Z,95843.00
2022-09-23T04:22:31.303Z,95846.00
2022-09-23T04:28:00.104Z,95841.00
2022-09-23T04:33:28.241Z,95838.00
2022-09-23T04:38:56.552Z,95836.00
2022-09-23T04:44:24.519Z,95840.00
2022-09-23T04:49:55.529Z,95833.00
2022-09-23T04:55:29.465Z,95829.00
2022-09-23T05:01:27.282Z,95831.00
2022-09-23T05:06:57.488Z,95840.00
2022-09-23T05:12:28.758Z,95842.00
2022-09-23T05:17:59.704Z,95844.00
2022-09-23T05:23:28.174Z,95849.00
2022-09-23T05:28:56.240Z,95842.00
2022-09-23T05:34:24.802Z,95857.00
2022-09-23T05:39:52.688Z,95849.00
2022-09-23T05:45:21.104Z,95854.00
2022-09-23T05:50:52.779Z,95852.00
2022-09-23T05:56:25.145Z,95849.00
2022-09-23T06:01:56.312Z,95848.00
2022-09-23T06:07:24.901Z,95847.00
2022-09-23T06:12:52.993Z,95851.00
2022-09-23T06:18:20.973Z,95840.00
2022-09-23T06:23:50.761Z,95843.00
2022-09-23T06:29:20.487Z,95849.00
2022-09-23T06:34:51.989Z,95840.00
2022-09-23T06:40:20.712Z,95845.00
2022-09-23T06:45:56.673Z,95850.00
2022-09-23T06:51:24.533Z,95856.00
2022-09-23T06:56:55.801Z,95860.00
2022-09-23T07:02:24.034Z,95847.00
2022-09-23T07:07:53.375Z,95861.00
2022-09-23T07:13:21.714Z,95867.00
2022-09-23T07:18:49.521Z,95859.00
2022-09-23T07:24:18.064Z,95868.00
2022-09-23T07:29:50.635Z,95863.00
2022-09-23T07:35:18.673Z,95861.00
2022-09-23T07:40:46.840Z,95871.00
2022-09-23T07:46:18.296Z,95873.00
2022-09-23T07:51:46.407Z,95871.00
2022-09-23T07:57:14.138Z,95872.00
2022-09-23T08:02:42.614Z,95879.00
2022-09-23T08:08:10.611Z,95887.00
2022-09-23T08:13:38.956Z,95887.00
2022-09-23T08:19:07.800Z,95886.00
2022-09-23T08:24:35.601Z,95890.00
2022-09-23T08:30:03.815Z,95890.00
2022-09-23T08:35:31.906Z,95888.00
2022-09-23T08:41:58.487Z,95890.00
2022-09-23T08:47:47.330Z,95882.00
2022-09-23T08:53:38.808Z,95875.00
2022-09-23T08:59:31.413Z,95881.00
2022-09-23T09:05:06.634Z,95878.00
2022-09-23T09:10:46.379Z,95879.00
2022-09-23T09:16:55.444Z,95875.00
2022-09-23T09:22:55.074Z,95866.00
2022-09-23T09:28:35.872Z,95864.00
2022-09-23T09:34:37.712Z,95863.00
2022-09-23T09:40:06.590Z,95847.00
2022-09-23T09:45:58.126Z,95838.00
2022-09-23T09:51:29.446Z,95838.00
2022-09-23T09:56:57.574Z,95839.00
2022-09-23T10:02:37.571Z,95839.00
2022-09-23T10:08:35.066Z,95828.00
2022-09-23T10:14:12.613Z,95823.00
2022-09-23T10:19:47.335Z,95820.00
2022-09-23T10:25:27.682Z,95819.00
2022-09-23T10:31:26.250Z,95815.00
2022-09-23T10:37:24.596Z,95810.00
2022-09-23T10:43:47.110Z,95816.00
2022-09-23T10:49:41.087Z,95808.00
2022-09-23T10:55:49.522Z,95794.00
2022-09-23T11:01:49.039Z,95787.00
2022-09-23T11:07:57.025Z,95793.00
2022-09-23T11:13:57.253Z,95787.00
2022-09-23T11:19:32.054Z,95786.00
2022-09-23T11:25:02.445Z,95770.00
2022-09-23T11:30:49.781Z,95769.00
2022-09-23T11:36:38.370Z,95769.00
2022-09-23T11:42:14.427Z,95765.00
2022-09-23T11:48:22.873Z,95756.00
2022-09-23T11:54:11.187Z,95751.00
2022-09-23T11:59:55.051Z,95743.00
2022-09-23T12:05:35.479Z,95750.00
2022-09-23T12:11:11.199Z,95738.00
2022-09-23T12:17:01.061Z,95739.00
2022-09-23T12:22:55.258Z,95734.00
2022-09-23T12:28:29.266Z,95725.00
2022-09-23T12:34:01.006Z,95717.00
2022-09-23T12:39:37.321Z,95725.00
2022-09-23T12:45:39.888Z,95714.00
2022-09-23T12:51:20.261Z,95705.00
2022-09-23T12:56:54.188Z,95701.00
2022-09-23T13:02:38.363Z,95700.00
2022-09-23T13:08:16.253Z,95687.00
2022-09-23T13:13:46.195Z,95680.00
2022-09-23T13:19:38.574Z,95676.00
2022-09-23T13:25:24.891Z,95672.00
2022-09-23T13:30:53.474Z,95653.00
2022-09-23T13:36:21.962Z,95655.00
2022-09-23T13:41:51.008Z,95658.00
2022-09-23T13:47:18.896Z,95645.00
2022-09-23T13:52:55.803Z,95634.00
2022-09-23T13:58:26.872Z,95630.00
2022-09-23T14:03:57.527Z,95626.00
2022-09-23T14:09:28.474Z,95619.00
2022-09-23T14:14:57.215Z,95615.00
2022-09-23T14:20:25.067Z,95604.00
2022-09-23T14:25:54.055Z,95593.00
2022-09-23T14:31:23.197Z,95587.00
2022-09-23T14:37:17.228Z,95583.00
2022-09-23T14:42:51.444Z,95579.00
2022-09-23T14:48:27.233Z,95613.00
2022-09-23T14:53:55.096Z,95579.00
2022-09-23T14:59:36.312Z,95610.00
2022-09-23T15:05:22.970Z,95610.00
2022-09-23T15:10:52.099Z,95606.00
2022-09-23T15:16:27.736Z,95598.00
2022-09-23T15:21:55.777Z,95598.00
2022-09-23T15:27:35.589Z,95592.00
2022-09-23T15:33:04.153Z,95579.00
2022-09-23T15:38:32.156Z,95592.00
2022-09-23T15:44:13.010Z,95590.00
2022-09-23T15:49:41.530Z,95580.00
2022-09-23T15:55:21.311Z,95579.00
2022-09-23T16:00:56.630Z,95583.00
2022-09-23T16:06:24.736Z,95577.00
2022-09-23T16:11:53.270Z,95582.00
2022-09-23T16:17:22.596Z,95572.00
2022-09-23T16:23:07.179Z,95587.00
2022-09-23T16:28:35.254Z,95583.00
2022-09-23T16:34:03.526Z,95587.00
2022-09-23T16:39:31.743Z,95591.00
2022-09-23T16:44:59.826Z,95591.00
2022-09-23T16:50:29.345Z,95592.00
2022-09-23T16:56:00.120Z,95599.00
2022-09-23T17:01:48.436Z,95586.00
2022-09-23T17:07:16.782Z,95581.00
2022-09-23T17:12:45.191Z,95582.00
2022-09-23T17:18:16.516Z,95579.00
2022-09-23T17:23:48.943Z,95588.00
2022-09-23T17:29:16.784Z,95595.00
2022-09-23T17:34:44.950Z,95598.00
2022-09-23T17:40:13.792Z,95600.00
2022-09-23T17:45:41.637Z,95605.00
2022-09-23T17:51:18.884Z,95618.00
2022-09-23T17:56:47.176Z,95614.00
2022-09-23T18:02:16.224Z,95610.00
2022-09-23T18:07:44.502Z,95609.00
2022-09-23T18:13:12.686Z,95597.00
2022-09-23T18:18:40.624Z,95609.00
2022-09-23T18:24:31.216Z,95605.00
2022-09-23T18:29:58.045Z,95603.00
2022-09-23T18:35:25.928Z,95600.00
2022-09-23T18:40:57.076Z,95604.00
2022-09-23T18:46:29.490Z,95603.00
2022-09-23T18:51:58.303Z,95596.00
2022-09-23T18:57:26.162Z,95602.00
2022-09-23T19:02:54.379Z,95605.00
2022-09-23T19:08:24.419Z,95602.00
2022-09-23T19:13:59.279Z,95597.00
2022-09-23T19:19:30.285Z,95605.00
2022-09-23T19:24:58.306Z,95601.00
2022-09-23T19:30:26.133Z,95600.00
2022-09-23T19:35:53.936Z,95585.00
2022-09-23T19:41:24.057Z,95587.00
2022-09-23T19:46:56.387Z,95590.00
2022-09-23T19:52:25.076Z,95583.00
2022-09-23T19:57:52.990Z,95587.00
2022-09-23T20:03:20.757Z,95576.00
2022-09-23T20:08:49.508Z,95584.00
2022-09-23T20:14:19.523Z,95585.00
2022-09-23T20:19:47.656Z,95569.00
2022-09-23T20:25:15.631Z,95571.00
2022-09-23T20:30:44.172Z,95574.00
2022-09-23T20:36:15.666Z,95568.00
2022-09-23T20:41:43.582Z,95560.00
2022-09-23T20:47:14.153Z,95567.00
2022-09-23T20:52:41.912Z,95562.00
2022-09-23T20:58:09.807Z,95556.00
2022-09-23T21:03:41.811Z,95557.00
2022-09-23T21:09:09.579Z,95552.00
2022-09-23T21:14:37.437Z,95538.00
2022-09-23T21:20:06.483Z,95544.00
2022-09-23T21:25:36.574Z,95543.00
2022-09-23T21:31:09.149Z,95538.00
2022-09-23T21:36:48.021Z,95538.00
2022-09-23T21:42:18.434Z,95539.00
2022-09-23T21:47:46.349Z,95534.00
2022-09-23T21:53:25.486Z,95534.00
2022-09-23T21:58:59.837Z,95527.00
2022-09-23T22:04:27.886Z,95528.00
2022-09-23T22:09:56.474Z,95530.00
2022-09-23T22:15:25.924Z,95533.00
2022-09-23T22:20:58.027Z,95506.00
2022-09-23T22:26:25.832Z,95509.00
2022-09-23T22:32:12.516Z,95508.00
2022-09-23T22:37:40.908Z,95516.00
2022-09-23T22:43:09.033Z,95523.00
2022-09-23T22:48:37.405Z,95496.00
2022-09-23T22:54:05.456Z,95506.00
2022-09-23T22:59:34.120Z,95507.00
2022-09-23T23:05:02.613Z,95493.00
2022-09-23T23:10:31.221Z,95498.00
2022-09-23T23:16:04.852Z,95474.00
2022-09-23T23:21:34.382Z,95477.00
2022-09-23T23:27:02.234Z,95474.00
2022-09-23T23:32:31.014Z,95477.00
2022-09-23T23:37:59.367Z,95475.00
2022-09-23T23:43:27.357Z,95478.00
2022-09-23T23:48:56.425Z,95463.00
2022-09-23T23:54:24.541Z,95468.00
2022-09-23T23:59:52.196Z,95465.00
